• Join FlightAware (Why Join?)
  • Login
  • US Flag 
02:49AM EDT


 

Airport Tracker/Info


-or-


 

Live Flight TrackerFlight Track Log ✈ UCA4846 ✈ 27-Aug-2013 ✈ KEWR - KBUF

Flight Track Log - Related Links

Times and Time Zones

All times are in EDT time to prevent confusion due to time zone crossing. See the UCA4846 flight status page for this flight to view local times or setup timezone preferences in your user account.

Time Position Orientation Groundspeed Altitude Reporting Facility
EDT Latitude Longitude Course Direction KTS MPH feet Rate Location/Type
12:18PM 41.2077 -75.1554 305° West  Level Estimated
12:19PM 41.2401 -75.2185 304° West  Level Estimated
12:20PM 41.2765 -75.2896 304° West  Level Estimated
12:21PM 41.3129 -75.3609 304° West  Level Estimated
12:22PM 41.3492 -75.4322 304° West  Level Estimated
12:23PM 41.3855 -75.5035 304° West  Level Estimated
12:24PM 41.4218 -75.5750 304° West  Level Estimated
12:25PM 41.4580 -75.6466 304° West  Level Estimated
12:26PM 41.4942 -75.7182 304° West  Level Estimated
12:27PM 41.5303 -75.7899 304° West  Level Estimated
12:28PM 41.5664 -75.8616 304° West  Level Estimated
12:29PM 41.6024 -75.9335 304° West  Level Estimated
12:30PM 41.6384 -76.0054 304° West  Level Estimated
12:31PM 41.6744 -76.0775 304° West  Level Estimated
12:32PM 41.7103 -76.1496 304° West  Level Estimated
12:33PM 41.7461 -76.2218 304° West  Level Estimated
12:34PM 41.7820 -76.2940 304° West  Level Estimated
12:35PM 41.8177 -76.3664 304° West  Level Estimated
12:36PM 41.8534 -76.4388 304° West  Level Estimated
12:37PM 41.8891 -76.5113 303° West  Level Estimated
12:38PM 41.9248 -76.5839 303° West  Level Estimated
12:39PM 41.9603 -76.6566 303° West  Level Estimated
12:40PM 41.9959 -76.7293 303° West  Level Estimated
12:41PM 42.0314 -76.8022 303° West  Level Estimated
12:42PM 42.0668 -76.8751 303° West  Level Estimated
12:43PM 42.1022 -76.9481 303° West  Level Estimated
12:44PM 42.1376 -77.0211 303° West  Level Estimated
12:45PM 42.1729 -77.0943 303° West  Level Estimated
12:46PM 42.2081 -77.1675 303° West  Level Estimated
12:47PM 42.2434 -77.2409 303° West  Level Estimated
12:48PM 42.2785 -77.3143 303° West  Level Estimated
12:49PM 42.3136 -77.3878 303° West  Level Estimated
12:50PM 42.3487 -77.4613 303° West  Level Estimated
12:51PM 42.3838 -77.5350 303° West  Level Estimated
12:52PM 42.4187 -77.6087 303° West  Level Estimated
12:53PM 42.4537 -77.6825 303° West  Level Estimated
12:54PM 42.4885 -77.7564 303° West  Level Estimated
12:55PM 42.5234 -77.8304 303° West  Level Estimated
12:56PM 42.5582 -77.9045 303° West  Level Estimated
12:57PM 42.5929 -77.9786 302° West  Level Estimated
12:58PM 42.6276 -78.0528 302° West  Level Estimated
12:59PM 42.6623 -78.1271 302° West  Level Estimated
01:00PM 42.6969 -78.2015 302° West  Level Estimated
01:01PM 42.7314 -78.2760 302° West  Level Estimated
01:02PM 42.7659 -78.3506 302° West  Level Estimated
01:03PM 42.8004 -78.4252 302° West  Level Estimated
01:04PM 42.8348 -78.4999 302° West  Level Estimated
01:05PM 42.8691 -78.5747 302° West  Level Estimated
01:06PM 42.9034 -78.6496 302° West  Level Estimated
01:07PM 42.9377 -78.7246 302° West  Level Estimated
01:08PM 42.9404 -78.7306 302° West  Level Estimated
01:09PM 42.9404 -78.7306 216° Southwest  Level Estimated
01:10PM 42.9404 -78.7306 216° Southwest  Level Estimated
01:11PM 42.9404 -78.7306 216° Southwest  Level Estimated
01:12PM 42.9404 -78.7306 216° Southwest  Level Estimated
01:13PM 42.9404 -78.7306 216° Southwest  Level Estimated
01:14PM 42.9404 -78.7306 216° Southwest  Level Estimated
01:15PM 42.9404 -78.7306 216° Southwest  Level Estimated
01:16PM 42.9404 -78.7306 216° Southwest  Level Estimated
01:17PM 42.9404 -78.7306 216° Southwest  Level Estimated
01:18PM 42.9404 -78.7306 216° Southwest  Level Estimated
01:19PM 42.9404 -78.7306 216° Southwest  Level Estimated
01:20PM 42.9404 -78.7306 216° Southwest  Level Estimated
01:21PM 42.9404 -78.7306 216° Southwest  Level Estimated
01:22PM 42.9404 -78.7306 216° Southwest  Level Estimated
01:23PM 42.9404 -78.7306 216° Southwest  Level Estimated